sensor_id;sensor_type;location;lat;lon;timestamp;P1;durP1;ratioP1;P2;durP2;ratioP2
63434;SDS011;68814;50.872;5.306;2023-07-20T00:02:16;8.27;;;3.88;;
63434;SDS011;68814;50.872;5.306;2023-07-20T00:04:41;6.25;;;3.58;;
63434;SDS011;68814;50.872;5.306;2023-07-20T00:07:07;8.20;;;4.10;;
63434;SDS011;68814;50.872;5.306;2023-07-20T00:09:38;6.10;;;3.63;;
63434;SDS011;68814;50.872;5.306;2023-07-20T00:12:05;8.50;;;3.72;;
63434;SDS011;68814;50.872;5.306;2023-07-20T00:14:31;9.27;;;3.97;;
63434;SDS011;68814;50.872;5.306;2023-07-20T00:16:57;11.68;;;3.70;;
63434;SDS011;68814;50.872;5.306;2023-07-20T00:19:23;7.05;;;3.85;;
63434;SDS011;68814;50.872;5.306;2023-07-20T00:21:50;9.40;;;4.10;;
63434;SDS011;68814;50.872;5.306;2023-07-20T00:24:17;9.25;;;4.05;;
63434;SDS011;68814;50.872;5.306;2023-07-20T00:26:43;7.32;;;3.80;;
63434;SDS011;68814;50.872;5.306;2023-07-20T00:29:15;7.03;;;3.90;;
63434;SDS011;68814;50.872;5.306;2023-07-20T00:31:41;8.00;;;4.13;;
63434;SDS011;68814;50.872;5.306;2023-07-20T00:34:08;6.50;;;3.95;;
63434;SDS011;68814;50.872;5.306;2023-07-20T00:36:34;9.55;;;4.75;;
63434;SDS011;68814;50.872;5.306;2023-07-20T00:39:00;7.90;;;3.70;;
63434;SDS011;68814;50.872;5.306;2023-07-20T00:41:27;10.05;;;4.13;;
63434;SDS011;68814;50.872;5.306;2023-07-20T00:44:02;6.13;;;3.70;;
63434;SDS011;68814;50.872;5.306;2023-07-20T00:46:29;8.15;;;4.07;;
63434;SDS011;68814;50.872;5.306;2023-07-20T00:48:56;6.78;;;3.95;;
63434;SDS011;68814;50.872;5.306;2023-07-20T00:51:22;5.85;;;3.78;;
63434;SDS011;68814;50.872;5.306;2023-07-20T00:53:50;10.57;;;3.67;;
63434;SDS011;68814;50.872;5.306;2023-07-20T00:56:16;8.60;;;4.10;;
63434;SDS011;68814;50.872;5.306;2023-07-20T00:58:45;8.45;;;3.70;;
63434;SDS011;68814;50.872;5.306;2023-07-20T01:01:18;9.48;;;3.90;;
63434;SDS011;68814;50.872;5.306;2023-07-20T01:03:43;7.03;;;3.60;;
63434;SDS011;68814;50.872;5.306;2023-07-20T01:06:27;13.55;;;3.83;;
63434;SDS011;68814;50.872;5.306;2023-07-20T01:09:11;6.68;;;3.22;;
63434;SDS011;68814;50.872;5.306;2023-07-20T01:12:07;9.73;;;3.58;;
63434;SDS011;68814;50.872;5.306;2023-07-20T01:14:45;5.75;;;3.03;;
63434;SDS011;68814;50.872;5.306;2023-07-20T01:17:13;8.63;;;3.28;;
63434;SDS011;68814;50.872;5.306;2023-07-20T01:19:40;9.65;;;3.38;;
63434;SDS011;68814;50.872;5.306;2023-07-20T01:28:03;4.32;;;3.03;;
63434;SDS011;68814;50.872;5.306;2023-07-20T01:33:45;8.95;;;2.67;;
63434;SDS011;68814;50.872;5.306;2023-07-20T01:36:12;9.23;;;2.88;;
63434;SDS011;68814;50.872;5.306;2023-07-20T01:38:38;7.60;;;3.05;;
63434;SDS011;68814;50.872;5.306;2023-07-20T01:41:05;8.68;;;2.92;;
63434;SDS011;68814;50.872;5.306;2023-07-20T01:43:31;11.85;;;3.05;;
63434;SDS011;68814;50.872;5.306;2023-07-20T01:45:56;6.40;;;3.00;;
63434;SDS011;68814;50.872;5.306;2023-07-20T01:48:24;7.78;;;2.97;;
63434;SDS011;68814;50.872;5.306;2023-07-20T01:50:49;6.72;;;2.80;;
63434;SDS011;68814;50.872;5.306;2023-07-20T01:53:16;7.10;;;3.50;;
63434;SDS011;68814;50.872;5.306;2023-07-20T01:55:42;8.38;;;3.22;;
63434;SDS011;68814;50.872;5.306;2023-07-20T01:58:09;10.57;;;3.85;;
63434;SDS011;68814;50.872;5.306;2023-07-20T02:00:36;10.30;;;3.30;;
63434;SDS011;68814;50.872;5.306;2023-07-20T02:03:02;9.90;;;3.67;;
63434;SDS011;68814;50.872;5.306;2023-07-20T02:05:28;9.05;;;3.03;;
63434;SDS011;68814;50.872;5.306;2023-07-20T02:07:54;8.40;;;3.38;;
63434;SDS011;68814;50.872;5.306;2023-07-20T02:10:20;9.27;;;3.72;;
63434;SDS011;68814;50.872;5.306;2023-07-20T02:12:45;7.38;;;3.10;;
63434;SDS011;68814;50.872;5.306;2023-07-20T02:15:12;9.00;;;3.40;;
63434;SDS011;68814;50.872;5.306;2023-07-20T02:17:42;6.93;;;2.90;;
63434;SDS011;68814;50.872;5.306;2023-07-20T02:20:08;7.85;;;2.95;;
63434;SDS011;68814;50.872;5.306;2023-07-20T02:22:35;13.88;;;3.60;;
63434;SDS011;68814;50.872;5.306;2023-07-20T02:25:03;9.10;;;4.00;;
63434;SDS011;68814;50.872;5.306;2023-07-20T02:27:30;13.48;;;3.42;;
63434;SDS011;68814;50.872;5.306;2023-07-20T02:29:55;15.70;;;4.50;;
63434;SDS011;68814;50.872;5.306;2023-07-20T02:32:22;9.88;;;3.40;;
63434;SDS011;68814;50.872;5.306;2023-07-20T02:34:47;11.55;;;3.50;;
63434;SDS011;68814;50.872;5.306;2023-07-20T02:37:15;11.30;;;3.55;;
63434;SDS011;68814;50.872;5.306;2023-07-20T02:39:41;9.68;;;3.83;;
63434;SDS011;68814;50.872;5.306;2023-07-20T02:42:07;11.10;;;3.50;;
63434;SDS011;68814;50.872;5.306;2023-07-20T02:44:33;10.13;;;3.60;;
63434;SDS011;68814;50.872;5.306;2023-07-20T02:46:59;10.40;;;3.58;;
63434;SDS011;68814;50.872;5.306;2023-07-20T02:49:24;17.50;;;3.83;;
63434;SDS011;68814;50.872;5.306;2023-07-20T02:51:50;6.70;;;3.70;;
63434;SDS011;68814;50.872;5.306;2023-07-20T02:54:16;9.98;;;4.38;;
63434;SDS011;68814;50.872;5.306;2023-07-20T02:56:42;9.77;;;4.00;;
63434;SDS011;68814;50.872;5.306;2023-07-20T02:59:08;14.73;;;4.28;;
63434;SDS011;68814;50.872;5.306;2023-07-20T03:01:34;11.13;;;4.35;;
63434;SDS011;68814;50.872;5.306;2023-07-20T03:04:00;15.38;;;4.10;;
63434;SDS011;68814;50.872;5.306;2023-07-20T03:06:27;9.95;;;3.45;;
63434;SDS011;68814;50.872;5.306;2023-07-20T03:08:53;12.60;;;4.10;;
63434;SDS011;68814;50.872;5.306;2023-07-20T03:11:19;11.93;;;3.78;;
63434;SDS011;68814;50.872;5.306;2023-07-20T03:13:46;11.38;;;4.10;;
63434;SDS011;68814;50.872;5.306;2023-07-20T03:16:13;11.48;;;3.92;;
63434;SDS011;68814;50.872;5.306;2023-07-20T03:18:41;10.90;;;4.07;;
63434;SDS011;68814;50.872;5.306;2023-07-20T03:21:08;13.07;;;3.85;;
63434;SDS011;68814;50.872;5.306;2023-07-20T03:23:37;11.73;;;4.00;;
63434;SDS011;68814;50.872;5.306;2023-07-20T03:26:04;10.02;;;4.45;;
63434;SDS011;68814;50.872;5.306;2023-07-20T03:28:34;13.75;;;4.38;;
63434;SDS011;68814;50.872;5.306;2023-07-20T03:31:00;13.98;;;4.35;;
63434;SDS011;68814;50.872;5.306;2023-07-20T03:33:29;14.63;;;3.63;;
63434;SDS011;68814;50.872;5.306;2023-07-20T03:36:05;13.80;;;4.18;;
63434;SDS011;68814;50.872;5.306;2023-07-20T03:38:36;11.82;;;4.78;;
63434;SDS011;68814;50.872;5.306;2023-07-20T03:41:01;11.25;;;4.53;;
63434;SDS011;68814;50.872;5.306;2023-07-20T03:43:28;14.05;;;4.53;;
63434;SDS011;68814;50.872;5.306;2023-07-20T03:45:55;9.65;;;4.32;;
63434;SDS011;68814;50.872;5.306;2023-07-20T03:48:23;13.77;;;4.45;;
63434;SDS011;68814;50.872;5.306;2023-07-20T03:50:50;15.70;;;4.25;;
63434;SDS011;68814;50.872;5.306;2023-07-20T03:53:18;12.18;;;3.80;;
63434;SDS011;68814;50.872;5.306;2023-07-20T03:55:44;10.57;;;4.50;;
63434;SDS011;68814;50.872;5.306;2023-07-20T03:58:12;12.70;;;4.93;;
63434;SDS011;68814;50.872;5.306;2023-07-20T04:00:46;13.02;;;4.22;;
63434;SDS011;68814;50.872;5.306;2023-07-20T04:03:14;10.65;;;3.90;;
63434;SDS011;68814;50.872;5.306;2023-07-20T04:05:40;9.88;;;4.10;;
63434;SDS011;68814;50.872;5.306;2023-07-20T04:08:05;13.95;;;4.65;;
63434;SDS011;68814;50.872;5.306;2023-07-20T04:13:19;11.85;;;5.65;;
63434;SDS011;68814;50.872;5.306;2023-07-20T04:15:44;11.90;;;5.07;;
63434;SDS011;68814;50.872;5.306;2023-07-20T04:18:11;24.50;;;6.90;;
63434;SDS011;68814;50.872;5.306;2023-07-20T04:20:39;15.27;;;5.65;;
63434;SDS011;68814;50.872;5.306;2023-07-20T04:23:05;13.68;;;6.03;;
63434;SDS011;68814;50.872;5.306;2023-07-20T04:25:31;14.98;;;6.15;;
63434;SDS011;68814;50.872;5.306;2023-07-20T04:28:07;20.97;;;7.37;;
63434;SDS011;68814;50.872;5.306;2023-07-20T04:30:34;19.23;;;7.80;;
63434;SDS011;68814;50.872;5.306;2023-07-20T04:33:01;15.65;;;7.68;;
63434;SDS011;68814;50.872;5.306;2023-07-20T04:36:13;14.48;;;8.35;;
63434;SDS011;68814;50.872;5.306;2023-07-20T04:38:17;19.10;;;9.25;;
63434;SDS011;68814;50.872;5.306;2023-07-20T04:40:48;26.58;;;10.57;;
63434;SDS011;68814;50.872;5.306;2023-07-20T04:43:29;17.17;;;10.00;;
63434;SDS011;68814;50.872;5.306;2023-07-20T04:45:54;16.95;;;10.00;;
63434;SDS011;68814;50.872;5.306;2023-07-20T04:48:23;19.80;;;9.88;;
63434;SDS011;68814;50.872;5.306;2023-07-20T04:50:50;19.67;;;10.13;;
63434;SDS011;68814;50.872;5.306;2023-07-20T04:53:16;18.90;;;9.77;;
63434;SDS011;68814;50.872;5.306;2023-07-20T04:55:47;21.33;;;9.52;;
63434;SDS011;68814;50.872;5.306;2023-07-20T04:58:15;20.10;;;10.10;;
63434;SDS011;68814;50.872;5.306;2023-07-20T05:00:42;25.77;;;10.27;;
63434;SDS011;68814;50.872;5.306;2023-07-20T05:03:09;22.92;;;10.07;;
63434;SDS011;68814;50.872;5.306;2023-07-20T05:05:36;22.02;;;9.73;;
63434;SDS011;68814;50.872;5.306;2023-07-20T05:08:03;19.92;;;10.32;;
63434;SDS011;68814;50.872;5.306;2023-07-20T05:10:30;20.92;;;10.90;;
63434;SDS011;68814;50.872;5.306;2023-07-20T05:12:55;18.17;;;10.57;;
63434;SDS011;68814;50.872;5.306;2023-07-20T05:15:22;24.15;;;10.68;;
63434;SDS011;68814;50.872;5.306;2023-07-20T05:17:52;24.08;;;10.65;;
63434;SDS011;68814;50.872;5.306;2023-07-20T05:20:18;23.02;;;10.60;;
63434;SDS011;68814;50.872;5.306;2023-07-20T05:22:47;28.13;;;11.27;;
63434;SDS011;68814;50.872;5.306;2023-07-20T05:25:13;19.13;;;9.63;;
63434;SDS011;68814;50.872;5.306;2023-07-20T05:27:39;25.17;;;10.23;;
63434;SDS011;68814;50.872;5.306;2023-07-20T05:30:05;24.95;;;9.35;;
63434;SDS011;68814;50.872;5.306;2023-07-20T05:32:34;20.85;;;9.70;;
63434;SDS011;68814;50.872;5.306;2023-07-20T05:35:00;26.95;;;10.77;;
63434;SDS011;68814;50.872;5.306;2023-07-20T05:37:26;19.17;;;10.00;;
63434;SDS011;68814;50.872;5.306;2023-07-20T05:39:51;24.67;;;10.07;;
63434;SDS011;68814;50.872;5.306;2023-07-20T05:42:17;22.95;;;10.50;;
63434;SDS011;68814;50.872;5.306;2023-07-20T05:44:42;20.75;;;10.45;;
63434;SDS011;68814;50.872;5.306;2023-07-20T05:47:08;22.80;;;11.05;;
63434;SDS011;68814;50.872;5.306;2023-07-20T05:49:34;19.08;;;10.73;;
63434;SDS011;68814;50.872;5.306;2023-07-20T05:52:03;23.73;;;12.30;;
63434;SDS011;68814;50.872;5.306;2023-07-20T05:54:30;23.83;;;12.73;;
63434;SDS011;68814;50.872;5.306;2023-07-20T05:56:56;18.90;;;12.27;;
63434;SDS011;68814;50.872;5.306;2023-07-20T05:59:21;30.30;;;13.68;;
63434;SDS011;68814;50.872;5.306;2023-07-20T06:01:55;25.75;;;13.10;;
63434;SDS011;68814;50.872;5.306;2023-07-20T06:04:40;20.92;;;12.00;;
63434;SDS011;68814;50.872;5.306;2023-07-20T06:07:08;22.10;;;13.93;;
63434;SDS011;68814;50.872;5.306;2023-07-20T06:09:40;22.35;;;13.40;;
63434;SDS011;68814;50.872;5.306;2023-07-20T06:12:57;22.67;;;13.57;;
63434;SDS011;68814;50.872;5.306;2023-07-20T06:15:26;22.13;;;14.05;;
63434;SDS011;68814;50.872;5.306;2023-07-20T06:18:04;23.40;;;13.40;;
63434;SDS011;68814;50.872;5.306;2023-07-20T06:20:29;20.88;;;13.88;;
63434;SDS011;68814;50.872;5.306;2023-07-20T06:22:55;21.98;;;13.45;;
63434;SDS011;68814;50.872;5.306;2023-07-20T06:25:21;25.08;;;13.55;;
63434;SDS011;68814;50.872;5.306;2023-07-20T06:27:48;24.08;;;14.10;;
63434;SDS011;68814;50.872;5.306;2023-07-20T06:30:18;22.63;;;13.93;;
63434;SDS011;68814;50.872;5.306;2023-07-20T06:32:44;23.27;;;13.57;;
63434;SDS011;68814;50.872;5.306;2023-07-20T06:35:10;26.33;;;14.75;;
63434;SDS011;68814;50.872;5.306;2023-07-20T06:37:36;20.27;;;14.05;;
63434;SDS011;68814;50.872;5.306;2023-07-20T06:40:02;22.38;;;13.10;;
63434;SDS011;68814;50.872;5.306;2023-07-20T06:42:29;17.70;;;12.43;;
63434;SDS011;68814;50.872;5.306;2023-07-20T06:44:56;20.98;;;12.88;;
63434;SDS011;68814;50.872;5.306;2023-07-20T06:47:25;21.67;;;14.13;;
63434;SDS011;68814;50.872;5.306;2023-07-20T06:49:52;23.08;;;13.45;;
63434;SDS011;68814;50.872;5.306;2023-07-20T06:52:17;20.95;;;12.85;;
63434;SDS011;68814;50.872;5.306;2023-07-20T06:54:43;20.58;;;11.88;;
63434;SDS011;68814;50.872;5.306;2023-07-20T06:57:09;17.38;;;10.55;;
63434;SDS011;68814;50.872;5.306;2023-07-20T06:59:35;14.43;;;10.23;;
63434;SDS011;68814;50.872;5.306;2023-07-20T07:02:00;20.13;;;12.18;;
63434;SDS011;68814;50.872;5.306;2023-07-20T07:04:26;17.50;;;11.25;;
63434;SDS011;68814;50.872;5.306;2023-07-20T07:06:52;14.55;;;10.68;;
63434;SDS011;68814;50.872;5.306;2023-07-20T07:09:18;15.45;;;10.25;;
63434;SDS011;68814;50.872;5.306;2023-07-20T07:11:44;21.73;;;10.88;;
63434;SDS011;68814;50.872;5.306;2023-07-20T07:14:09;17.48;;;10.30;;
63434;SDS011;68814;50.872;5.306;2023-07-20T07:16:37;14.88;;;10.82;;
63434;SDS011;68814;50.872;5.306;2023-07-20T07:19:03;14.75;;;9.20;;
63434;SDS011;68814;50.872;5.306;2023-07-20T07:21:30;15.35;;;8.65;;
63434;SDS011;68814;50.872;5.306;2023-07-20T07:23:56;14.52;;;10.40;;
63434;SDS011;68814;50.872;5.306;2023-07-20T07:26:22;13.20;;;8.68;;
63434;SDS011;68814;50.872;5.306;2023-07-20T07:28:49;16.67;;;9.32;;
63434;SDS011;68814;50.872;5.306;2023-07-20T07:31:15;17.20;;;9.23;;
63434;SDS011;68814;50.872;5.306;2023-07-20T07:33:40;12.98;;;8.15;;
63434;SDS011;68814;50.872;5.306;2023-07-20T07:36:06;12.07;;;7.82;;
63434;SDS011;68814;50.872;5.306;2023-07-20T07:38:32;14.55;;;7.07;;
63434;SDS011;68814;50.872;5.306;2023-07-20T07:40:58;12.60;;;7.28;;
63434;SDS011;68814;50.872;5.306;2023-07-20T07:43:24;14.45;;;8.10;;
63434;SDS011;68814;50.872;5.306;2023-07-20T07:45:49;9.45;;;5.75;;
63434;SDS011;68814;50.872;5.306;2023-07-20T07:48:15;16.55;;;8.38;;
63434;SDS011;68814;50.872;5.306;2023-07-20T07:50:42;10.65;;;8.30;;
63434;SDS011;68814;50.872;5.306;2023-07-20T07:53:08;12.32;;;8.20;;
63434;SDS011;68814;50.872;5.306;2023-07-20T07:55:35;13.90;;;10.05;;
63434;SDS011;68814;50.872;5.306;2023-07-20T07:58:00;11.23;;;6.68;;
63434;SDS011;68814;50.872;5.306;2023-07-20T08:00:26;12.32;;;8.13;;
63434;SDS011;68814;50.872;5.306;2023-07-20T08:02:52;12.73;;;8.38;;
63434;SDS011;68814;50.872;5.306;2023-07-20T08:05:17;13.23;;;7.10;;
63434;SDS011;68814;50.872;5.306;2023-07-20T08:07:43;13.75;;;8.55;;
63434;SDS011;68814;50.872;5.306;2023-07-20T08:10:08;11.95;;;8.13;;
63434;SDS011;68814;50.872;5.306;2023-07-20T08:12:35;10.82;;;6.50;;
63434;SDS011;68814;50.872;5.306;2023-07-20T08:15:00;9.50;;;6.63;;
63434;SDS011;68814;50.872;5.306;2023-07-20T08:17:26;9.93;;;6.97;;
63434;SDS011;68814;50.872;5.306;2023-07-20T08:19:52;9.48;;;6.85;;
63434;SDS011;68814;50.872;5.306;2023-07-20T08:22:17;8.68;;;5.85;;
63434;SDS011;68814;50.872;5.306;2023-07-20T08:24:43;9.38;;;6.18;;
63434;SDS011;68814;50.872;5.306;2023-07-20T08:27:09;10.40;;;6.68;;
63434;SDS011;68814;50.872;5.306;2023-07-20T08:29:36;10.10;;;6.57;;
63434;SDS011;68814;50.872;5.306;2023-07-20T08:32:02;11.65;;;6.78;;
63434;SDS011;68814;50.872;5.306;2023-07-20T08:34:29;12.13;;;6.10;;
63434;SDS011;68814;50.872;5.306;2023-07-20T08:36:55;8.48;;;6.00;;
63434;SDS011;68814;50.872;5.306;2023-07-20T08:39:21;8.40;;;5.55;;
63434;SDS011;68814;50.872;5.306;2023-07-20T08:41:48;8.52;;;6.03;;
63434;SDS011;68814;50.872;5.306;2023-07-20T08:44:14;15.57;;;6.15;;
63434;SDS011;68814;50.872;5.306;2023-07-20T08:46:40;7.63;;;4.80;;
63434;SDS011;68814;50.872;5.306;2023-07-20T08:49:07;6.82;;;3.97;;
63434;SDS011;68814;50.872;5.306;2023-07-20T08:51:33;8.25;;;4.78;;
63434;SDS011;68814;50.872;5.306;2023-07-20T08:54:01;7.68;;;4.63;;
63434;SDS011;68814;50.872;5.306;2023-07-20T08:56:27;5.50;;;3.95;;
63434;SDS011;68814;50.872;5.306;2023-07-20T08:58:54;8.45;;;5.22;;
63434;SDS011;68814;50.872;5.306;2023-07-20T09:01:21;9.27;;;5.40;;
63434;SDS011;68814;50.872;5.306;2023-07-20T09:03:47;7.95;;;4.63;;
63434;SDS011;68814;50.872;5.306;2023-07-20T09:06:14;5.57;;;4.38;;
63434;SDS011;68814;50.872;5.306;2023-07-20T09:08:40;8.63;;;4.35;;
63434;SDS011;68814;50.872;5.306;2023-07-20T09:11:07;8.68;;;4.78;;
63434;SDS011;68814;50.872;5.306;2023-07-20T09:13:33;7.03;;;4.10;;
63434;SDS011;68814;50.872;5.306;2023-07-20T09:15:59;5.28;;;3.75;;
63434;SDS011;68814;50.872;5.306;2023-07-20T09:18:28;6.15;;;3.50;;
63434;SDS011;68814;50.872;5.306;2023-07-20T09:21:01;7.15;;;2.90;;
63434;SDS011;68814;50.872;5.306;2023-07-20T09:23:32;4.25;;;3.28;;
63434;SDS011;68814;50.872;5.306;2023-07-20T09:25:59;6.20;;;2.85;;
63434;SDS011;68814;50.872;5.306;2023-07-20T09:28:25;4.47;;;1.88;;
63434;SDS011;68814;50.872;5.306;2023-07-20T09:30:51;6.30;;;2.47;;
63434;SDS011;68814;50.872;5.306;2023-07-20T09:33:19;3.88;;;2.40;;
63434;SDS011;68814;50.872;5.306;2023-07-20T09:35:47;2.97;;;1.83;;
63434;SDS011;68814;50.872;5.306;2023-07-20T09:38:13;4.38;;;1.60;;
63434;SDS011;68814;50.872;5.306;2023-07-20T09:40:40;3.67;;;2.20;;
63434;SDS011;68814;50.872;5.306;2023-07-20T09:43:10;3.65;;;1.80;;
63434;SDS011;68814;50.872;5.306;2023-07-20T09:45:42;5.15;;;2.40;;
63434;SDS011;68814;50.872;5.306;2023-07-20T09:48:09;3.40;;;2.40;;
63434;SDS011;68814;50.872;5.306;2023-07-20T09:50:42;3.15;;;1.80;;
63434;SDS011;68814;50.872;5.306;2023-07-20T09:53:11;3.50;;;1.92;;
63434;SDS011;68814;50.872;5.306;2023-07-20T09:55:40;3.85;;;1.50;;
63434;SDS011;68814;50.872;5.306;2023-07-20T09:58:08;2.85;;;2.05;;
63434;SDS011;68814;50.872;5.306;2023-07-20T10:00:35;4.18;;;2.17;;
63434;SDS011;68814;50.872;5.306;2023-07-20T10:03:03;4.82;;;1.77;;
63434;SDS011;68814;50.872;5.306;2023-07-20T10:05:32;4.22;;;1.75;;
63434;SDS011;68814;50.872;5.306;2023-07-20T10:08:00;3.17;;;1.38;;
63434;SDS011;68814;50.872;5.306;2023-07-20T10:10:27;1.75;;;1.10;;
63434;SDS011;68814;50.872;5.306;2023-07-20T10:12:54;3.83;;;1.45;;
63434;SDS011;68814;50.872;5.306;2023-07-20T10:15:32;2.17;;;1.45;;
63434;SDS011;68814;50.872;5.306;2023-07-20T10:18:07;4.13;;;1.67;;
63434;SDS011;68814;50.872;5.306;2023-07-20T10:20:54;1.58;;;1.40;;
63434;SDS011;68814;50.872;5.306;2023-07-20T10:23:21;2.38;;;1.40;;
63434;SDS011;68814;50.872;5.306;2023-07-20T10:25:48;2.20;;;1.30;;
63434;SDS011;68814;50.872;5.306;2023-07-20T10:28:14;2.95;;;1.58;;
63434;SDS011;68814;50.872;5.306;2023-07-20T10:30:41;5.72;;;2.17;;
63434;SDS011;68814;50.872;5.306;2023-07-20T10:33:07;2.97;;;1.13;;
63434;SDS011;68814;50.872;5.306;2023-07-20T10:38:19;2.40;;;1.20;;
63434;SDS011;68814;50.872;5.306;2023-07-20T10:41:02;2.47;;;1.00;;
63434;SDS011;68814;50.872;5.306;2023-07-20T10:43:28;1.33;;;0.80;;
63434;SDS011;68814;50.872;5.306;2023-07-20T10:45:55;2.88;;;1.05;;
63434;SDS011;68814;50.872;5.306;2023-07-20T10:48:21;1.60;;;0.90;;
63434;SDS011;68814;50.872;5.306;2023-07-20T10:53:59;1.40;;;0.70;;
63434;SDS011;68814;50.872;5.306;2023-07-20T10:56:27;3.40;;;0.85;;
63434;SDS011;68814;50.872;5.306;2023-07-20T10:59:00;1.90;;;0.90;;
63434;SDS011;68814;50.872;5.306;2023-07-20T11:01:41;1.38;;;0.70;;
63434;SDS011;68814;50.872;5.306;2023-07-20T11:04:09;2.55;;;0.90;;
63434;SDS011;68814;50.872;5.306;2023-07-20T11:06:34;1.77;;;0.70;;
63434;SDS011;68814;50.872;5.306;2023-07-20T11:11:47;8.48;;;1.90;;
63434;SDS011;68814;50.872;5.306;2023-07-20T11:16:48;3.28;;;0.70;;
63434;SDS011;68814;50.872;5.306;2023-07-20T11:19:23;2.33;;;0.87;;
63434;SDS011;68814;50.872;5.306;2023-07-20T11:21:57;1.30;;;0.80;;
63434;SDS011;68814;50.872;5.306;2023-07-20T11:24:23;2.05;;;0.70;;
63434;SDS011;68814;50.872;5.306;2023-07-20T11:26:50;2.00;;;1.00;;
63434;SDS011;68814;50.872;5.306;2023-07-20T11:29:17;1.80;;;0.98;;
63434;SDS011;68814;50.872;5.306;2023-07-20T11:31:45;2.95;;;0.90;;
63434;SDS011;68814;50.872;5.306;2023-07-20T11:34:12;3.92;;;0.90;;
63434;SDS011;68814;50.872;5.306;2023-07-20T11:36:43;4.28;;;1.27;;
63434;SDS011;68814;50.872;5.306;2023-07-20T11:39:10;1.65;;;0.75;;
63434;SDS011;68814;50.872;5.306;2023-07-20T11:41:37;4.22;;;0.90;;
63434;SDS011;68814;50.872;5.306;2023-07-20T11:44:06;3.03;;;0.85;;
63434;SDS011;68814;50.872;5.306;2023-07-20T11:46:32;2.53;;;0.77;;
63434;SDS011;68814;50.872;5.306;2023-07-20T11:48:59;1.70;;;0.90;;
63434;SDS011;68814;50.872;5.306;2023-07-20T11:51:29;1.35;;;0.80;;
63434;SDS011;68814;50.872;5.306;2023-07-20T11:53:56;2.88;;;0.88;;
63434;SDS011;68814;50.872;5.306;2023-07-20T11:56:23;0.98;;;0.80;;
63434;SDS011;68814;50.872;5.306;2023-07-20T11:58:49;4.85;;;0.90;;
63434;SDS011;68814;50.872;5.306;2023-07-20T12:01:15;1.10;;;0.70;;
63434;SDS011;68814;50.872;5.306;2023-07-20T12:03:43;2.60;;;0.65;;
63434;SDS011;68814;50.872;5.306;2023-07-20T12:06:12;2.17;;;0.70;;
63434;SDS011;68814;50.872;5.306;2023-07-20T12:08:39;2.17;;;0.70;;
63434;SDS011;68814;50.872;5.306;2023-07-20T12:11:06;2.83;;;1.10;;
63434;SDS011;68814;50.872;5.306;2023-07-20T12:13:39;2.00;;;0.80;;
63434;SDS011;68814;50.872;5.306;2023-07-20T12:16:14;1.88;;;0.82;;
63434;SDS011;68814;50.872;5.306;2023-07-20T12:18:42;1.77;;;0.70;;
63434;SDS011;68814;50.872;5.306;2023-07-20T12:21:08;2.00;;;0.65;;
63434;SDS011;68814;50.872;5.306;2023-07-20T12:23:38;1.80;;;0.80;;
63434;SDS011;68814;50.872;5.306;2023-07-20T12:26:07;3.40;;;0.82;;
63434;SDS011;68814;50.872;5.306;2023-07-20T12:28:41;2.15;;;1.08;;
63434;SDS011;68814;50.872;5.306;2023-07-20T12:31:10;2.23;;;0.73;;
63434;SDS011;68814;50.872;5.306;2023-07-20T12:33:36;3.10;;;0.90;;
63434;SDS011;68814;50.872;5.306;2023-07-20T12:36:03;1.55;;;0.60;;
63434;SDS011;68814;50.872;5.306;2023-07-20T12:38:29;1.58;;;0.40;;
63434;SDS011;68814;50.872;5.306;2023-07-20T12:40:56;5.30;;;1.25;;
63434;SDS011;68814;50.872;5.306;2023-07-20T12:43:21;2.03;;;0.65;;
63434;SDS011;68814;50.872;5.306;2023-07-20T12:45:47;6.10;;;0.95;;
63434;SDS011;68814;50.872;5.306;2023-07-20T12:48:13;2.47;;;0.43;;
63434;SDS011;68814;50.872;5.306;2023-07-20T12:50:39;0.75;;;0.57;;
63434;SDS011;68814;50.872;5.306;2023-07-20T12:53:08;2.00;;;0.60;;
63434;SDS011;68814;50.872;5.306;2023-07-20T12:55:33;2.60;;;0.98;;
63434;SDS011;68814;50.872;5.306;2023-07-20T12:57:59;1.17;;;0.60;;
63434;SDS011;68814;50.872;5.306;2023-07-20T13:00:25;1.50;;;1.05;;
63434;SDS011;68814;50.872;5.306;2023-07-20T13:02:51;2.60;;;0.70;;
63434;SDS011;68814;50.872;5.306;2023-07-20T13:05:17;1.75;;;0.70;;
63434;SDS011;68814;50.872;5.306;2023-07-20T13:07:42;0.70;;;0.60;;
63434;SDS011;68814;50.872;5.306;2023-07-20T13:10:09;1.50;;;0.50;;
63434;SDS011;68814;50.872;5.306;2023-07-20T13:12:36;2.75;;;0.65;;
63434;SDS011;68814;50.872;5.306;2023-07-20T13:15:03;2.40;;;0.75;;
63434;SDS011;68814;50.872;5.306;2023-07-20T13:17:33;1.38;;;0.60;;
63434;SDS011;68814;50.872;5.306;2023-07-20T13:20:00;1.23;;;0.60;;
63434;SDS011;68814;50.872;5.306;2023-07-20T13:22:28;0.47;;;0.47;;
63434;SDS011;68814;50.872;5.306;2023-07-20T13:24:54;1.48;;;0.55;;
63434;SDS011;68814;50.872;5.306;2023-07-20T13:27:20;2.05;;;0.57;;
63434;SDS011;68814;50.872;5.306;2023-07-20T13:29:46;1.02;;;0.47;;
63434;SDS011;68814;50.872;5.306;2023-07-20T13:32:14;0.90;;;0.40;;
63434;SDS011;68814;50.872;5.306;2023-07-20T13:34:42;1.15;;;0.43;;
63434;SDS011;68814;50.872;5.306;2023-07-20T13:37:09;2.60;;;0.60;;
63434;SDS011;68814;50.872;5.306;2023-07-20T13:39:35;1.38;;;0.60;;
63434;SDS011;68814;50.872;5.306;2023-07-20T13:42:01;0.57;;;0.40;;
63434;SDS011;68814;50.872;5.306;2023-07-20T13:44:37;0.95;;;0.40;;
63434;SDS011;68814;50.872;5.306;2023-07-20T13:47:03;2.05;;;0.47;;
63434;SDS011;68814;50.872;5.306;2023-07-20T13:49:30;4.53;;;0.50;;
63434;SDS011;68814;50.872;5.306;2023-07-20T13:51:56;1.25;;;0.40;;
63434;SDS011;68814;50.872;5.306;2023-07-20T13:54:22;2.13;;;0.47;;
63434;SDS011;68814;50.872;5.306;2023-07-20T13:56:48;2.28;;;0.52;;
63434;SDS011;68814;50.872;5.306;2023-07-20T13:59:14;0.88;;;0.47;;
63434;SDS011;68814;50.872;5.306;2023-07-20T14:01:39;2.95;;;1.00;;
63434;SDS011;68814;50.872;5.306;2023-07-20T14:04:05;1.73;;;0.82;;
63434;SDS011;68814;50.872;5.306;2023-07-20T14:06:31;1.67;;;0.50;;
63434;SDS011;68814;50.872;5.306;2023-07-20T14:08:58;0.68;;;0.68;;
63434;SDS011;68814;50.872;5.306;2023-07-20T14:11:24;1.50;;;0.50;;
63434;SDS011;68814;50.872;5.306;2023-07-20T14:13:50;1.10;;;0.63;;
63434;SDS011;68814;50.872;5.306;2023-07-20T14:16:17;1.48;;;0.40;;
63434;SDS011;68814;50.872;5.306;2023-07-20T14:18:43;1.17;;;0.40;;
63434;SDS011;68814;50.872;5.306;2023-07-20T14:21:12;1.42;;;0.43;;
63434;SDS011;68814;50.872;5.306;2023-07-20T14:23:37;1.95;;;0.45;;
63434;SDS011;68814;50.872;5.306;2023-07-20T14:26:03;0.45;;;0.40;;
63434;SDS011;68814;50.872;5.306;2023-07-20T14:28:36;3.22;;;0.50;;
63434;SDS011;68814;50.872;5.306;2023-07-20T14:31:12;0.45;;;0.30;;
63434;SDS011;68814;50.872;5.306;2023-07-20T14:33:39;1.35;;;0.40;;
63434;SDS011;68814;50.872;5.306;2023-07-20T14:36:08;0.43;;;0.35;;
63434;SDS011;68814;50.872;5.306;2023-07-20T14:38:37;2.83;;;0.50;;
63434;SDS011;68814;50.872;5.306;2023-07-20T14:41:05;1.10;;;0.50;;
63434;SDS011;68814;50.872;5.306;2023-07-20T14:43:32;0.55;;;0.47;;
63434;SDS011;68814;50.872;5.306;2023-07-20T14:45:57;1.05;;;0.55;;
63434;SDS011;68814;50.872;5.306;2023-07-20T14:48:23;1.15;;;0.40;;
63434;SDS011;68814;50.872;5.306;2023-07-20T14:50:48;1.35;;;0.50;;
63434;SDS011;68814;50.872;5.306;2023-07-20T14:53:14;1.13;;;0.40;;
63434;SDS011;68814;50.872;5.306;2023-07-20T14:55:41;1.20;;;0.50;;
63434;SDS011;68814;50.872;5.306;2023-07-20T14:58:07;1.05;;;0.40;;
63434;SDS011;68814;50.872;5.306;2023-07-20T15:00:33;1.50;;;0.43;;
63434;SDS011;68814;50.872;5.306;2023-07-20T15:02:58;1.65;;;0.50;;
63434;SDS011;68814;50.872;5.306;2023-07-20T15:05:24;2.28;;;0.60;;
63434;SDS011;68814;50.872;5.306;2023-07-20T15:07:51;0.82;;;0.40;;